Emmanuel Tomasos — C6SS7 — position and weather

sailwx.info

Track history (hours):
 
Tides and Currents Weather Stations Pressure Air Temp Water Temp Dewpoint Dewpoint Depression Visibility Wind Speed Wind Dir Waves Ship Positions

Emmanuel Tomasos

Last reported at 2017-Oct-07 12:23 UTC. Time now 2017-Nov-17 22:57 UTC.
Position S 00°17' W 047°30'.
Warning: this ship's position is 41 days out of date.

Length 182 m; draft 7.5 m.

Type: Tanker. MMSI: 311459000.

Date/timePositionNaut miles runAvg speedWind from/ knotsBaromVisibWave heightAir tempDewpointWater temp
2017-Oct-07 12:23S 00°17' W 047°30'513.2
2017-Oct-07 12:00S 00°19' W 047°35'612.7
2017-Oct-07 11:30S 00°22' W 047°40'611.9
2017-Oct-07 11:00S 00°23' W 047°46'510.5
2017-Oct-07 10:30S 00°23' W 047°51'4 8.8
2017-Oct-07 10:00S 00°26' W 047°55'611.1
2017-Oct-07 09:30S 00°29' W 047°60'713.5
2017-Oct-07 09:00S 00°34' W 048°05'714.4
2017-Oct-07 08:31S 00°38' W 048°11'1116.3
2017-Oct-07 07:50S 00°46' W 048°17'1318.4
2017-Oct-07 07:08S 00°57' W 048°24'517.6
2017-Oct-07 06:51S 01°02' W 048°26'617.2
2017-Oct-07 06:30S 01°07' W 048°29'4 8.4
2017-Oct-07 06:00S 01°10' W 048°32'815.7
2017-Oct-07 05:30S 01°16' W 048°37'714.7
2017-Oct-07 05:00S 01°22' W 048°41'713.7
2017-Oct-07 04:30S 01°28' W 048°44'4 7.5
2017-Oct-07 04:00S 01°32' W 048°45'0 0.0
2017-Oct-07 03:31S 01°32' W 048°45'0 0.0
2017-Oct-07 03:01S 01°32' W 048°45'0 0.0
2017-Oct-07 02:30S 01°32' W 048°45'0 0.0
2017-Oct-07 02:00S 01°32' W 048°45'0 0.0
2017-Oct-07 01:31S 01°32' W 048°45'0 0.0
2017-Oct-07 01:01S 01°32' W 048°45'0 0.1
2017-Oct-07 00:31S 01°32' W 048°45'0 0.1
2017-Oct-07 00:01S 01°32' W 048°45'0 0.0
2017-Oct-06 23:31S 01°32' W 048°45'0 0.3
2017-Oct-06 23:01S 01°32' W 048°45'0 0.3
2017-Oct-06 22:31S 01°32' W 048°45'0 0.0
2017-Oct-06 22:00S 01°32' W 048°45'0 0.0
2017-Oct-06 21:30S 01°32' W 048°45'0 0.0
2017-Oct-06 21:00S 01°32' W 048°45'0 0.0
2017-Oct-06 20:30S 01°32' W 048°45'0 0.0
2017-Oct-06 20:00S 01°32' W 048°45'0 0.0
2017-Oct-06 19:31S 01°32' W 048°45'0 0.0
2017-Oct-06 19:00S 01°32' W 048°45'0 0.0
2017-Oct-06 18:30S 01°32' W 048°45'0 0.0
2017-Oct-06 18:01S 01°32' W 048°45'1 2.4
2017-Oct-06 17:31S 01°31' W 048°45'1 2.0
2017-Oct-06 17:00S 01°32' W 048°45'0 0.8
2017-Oct-06 16:30S 01°32' W 048°45'0 0.2
2017-Oct-06 16:00S 01°32' W 048°45'0 0.2
2017-Oct-06 15:30S 01°32' W 048°45'0 0.2
2017-Oct-06 14:36S 01°32' W 048°45'0 0.1
2017-Oct-06 14:30S 01°32' W 048°45'0 0.0
2017-Oct-06 14:01S 01°32' W 048°45'0 0.0
2017-Oct-06 13:30S 01°32' W 048°45'0 0.0
2017-Oct-06 13:00S 01°32' W 048°45'0 0.0
2017-Oct-06 12:29S 01°32' W 048°45'0 0.0
2017-Oct-06 12:00S 01°32' W 048°45'0 0.0
2017-Oct-06 11:30S 01°32' W 048°45'0 0.0
2017-Oct-06 11:00S 01°32' W 048°45'0 0.4
2017-Oct-06 10:31S 01°32' W 048°45'0 0.4
2017-Oct-06 10:01S 01°32' W 048°45'0 0.1
2017-Oct-06 09:31S 01°32' W 048°45'0 0.0
2017-Oct-06 09:01S 01°32' W 048°45'0 0.2
2017-Oct-06 08:31S 01°32' W 048°45'0 0.7
2017-Oct-06 08:00S 01°32' W 048°45'0 0.5
2017-Oct-06 07:30S 01°32' W 048°45'0 0.0
2017-Oct-06 07:00S 01°32' W 048°45'0 0.0
2017-Oct-06 06:31S 01°32' W 048°45'0 0.0
2017-Oct-06 06:00S 01°32' W 048°45'0 0.0
2017-Oct-06 05:30S 01°32' W 048°45'0 0.0
2017-Oct-06 05:01S 01°32' W 048°45'0 0.0
2017-Oct-06 04:30S 01°32' W 048°45'0 0.0
2017-Oct-06 04:01S 01°32' W 048°45'0 0.0
2017-Oct-06 03:30S 01°32' W 048°45'0 0.0
2017-Oct-06 03:01S 01°32' W 048°45'0 0.0
2017-Oct-06 02:30S 01°32' W 048°45'0 0.0
2017-Oct-06 02:00S 01°32' W 048°45'0 0.0
2017-Oct-06 01:31S 01°32' W 048°45'0 0.0
2017-Oct-06 01:00S 01°32' W 048°45'1 1.7
2017-Oct-06 00:30S 01°31' W 048°44'1 2.0
2017-Oct-06 00:01S 01°32' W 048°45'0 0.3
2017-Oct-05 23:31S 01°32' W 048°45'0 0.4
2017-Oct-05 23:01S 01°32' W 048°45'0 0.4
2017-Oct-05 22:30S 01°32' W 048°45'0 0.1
2017-Oct-05 22:00S 01°32' W 048°45'0 0.0
2017-Oct-05 21:30S 01°32' W 048°45'0 0.0
2017-Oct-05 21:00S 01°32' W 048°45'0 0.0
2017-Oct-05 20:30S 01°32' W 048°45'0 0.0
2017-Oct-05 20:01S 01°32' W 048°45'0 0.0
2017-Oct-05 19:30S 01°32' W 048°45'0 0.0
2017-Oct-05 19:00S 01°32' W 048°45'0 0.0
2017-Oct-05 18:31S 01°32' W 048°45'0 0.0
2017-Oct-05 18:01S 01°32' W 048°45'0 0.0
2017-Oct-05 17:31S 01°32' W 048°45'0 0.0
2017-Oct-05 17:00S 01°32' W 048°45'0 0.0
2017-Oct-05 15:31S 01°32' W 048°45'0 0.1
2017-Oct-05 14:11S 01°32' W 048°45'0 1.8
2017-Oct-05 14:01S 01°32' W 048°45'1 1.0
2017-Oct-05 13:20S 01°31' W 048°46'0 0.0
2017-Oct-05 12:56S 01°31' W 048°46'0 0.0
2017-Oct-05 12:29S 01°31' W 048°46'0 0.0
2017-Oct-05 11:56S 01°31' W 048°46'0 0.0
2017-Oct-05 11:26S 01°31' W 048°46'0 0.1
2017-Oct-05 10:56S 01°31' W 048°46'0 0.1
2017-Oct-05 10:26S 01°31' W 048°46'0 0.3
2017-Oct-05 09:56S 01°31' W 048°46'0 0.1
2017-Oct-05 09:29S 01°31' W 048°45'0 0.0
2017-Oct-05 08:59S 01°31' W 048°45'0 0.1
2017-Oct-05 08:29S 01°31' W 048°45'0 0.7
2017-Oct-05 07:59S 01°31' W 048°45'0 0.7
2017-Oct-05 07:26S 01°31' W 048°45'0 0.0
2017-Oct-05 06:59S 01°31' W 048°45'0 0.0
2017-Oct-05 06:26S 01°31' W 048°45'0 0.0
2017-Oct-05 05:59S 01°31' W 048°45'0 0.2
2017-Oct-05 05:26S 01°31' W 048°46'0 0.4
2017-Oct-05 04:53S 01°31' W 048°46'0 0.0
2017-Oct-05 04:29S 01°31' W 048°46'0 0.0
2017-Oct-05 03:50S 01°31' W 048°46'0 0.0
2017-Oct-05 03:26S 01°31' W 048°46'0 0.0
2017-Oct-05 02:53S 01°31' W 048°46'0 0.0
2017-Oct-05 02:26S 01°31' W 048°46'0 0.0
2017-Oct-04 21:59S 01°31' W 048°46'0 0.2
2017-Oct-04 21:29S 01°31' W 048°46'0 0.1
2017-Oct-04 20:08S 01°31' W 048°45'0 0.0
2017-Oct-04 19:53S 01°31' W 048°45'0 0.0
2017-Oct-04 19:29S 01°31' W 048°45'0 0.3
2017-Oct-04 18:59S 01°31' W 048°46'0 0.4
2017-Oct-04 18:23S 01°31' W 048°45'0 0.2
2017-Oct-04 17:59S 01°31' W 048°45'0 0.3
2017-Oct-04 17:29S 01°31' W 048°46'0 0.4
2017-Oct-04 16:59S 01°31' W 048°45'0 0.2
2017-Oct-04 16:08S 01°31' W 048°46'0 0.3
2017-Oct-04 15:59S 01°31' W 048°46'0 0.1
2017-Oct-04 15:29S 01°31' W 048°46'0 0.8
2017-Oct-04 14:59S 01°32' W 048°45'0 0.3
2017-Oct-04 13:29S 01°31' W 048°46'0 0.0
2017-Oct-04 12:50S 01°31' W 048°46'0 0.0
2017-Oct-04 12:26S 01°31' W 048°46'0 0.0
2017-Oct-04 11:59S 01°31' W 048°46'0 0.0
2017-Oct-04 11:26S 01°31' W 048°46'0 0.0
2017-Oct-04 10:59S 01°31' W 048°46'0 0.0
2017-Oct-04 10:26S 01°31' W 048°46'0 0.1
2017-Oct-04 09:56S 01°31' W 048°46'0 0.5
2017-Oct-04 09:26S 01°31' W 048°45'0 0.2
2017-Oct-04 08:56S 01°31' W 048°45'0 0.1
2017-Oct-04 08:29S 01°31' W 048°45'0 0.7
2017-Oct-04 07:59S 01°31' W 048°45'0 0.8
2017-Oct-04 07:29S 01°31' W 048°45'0 0.0
2017-Oct-04 06:59S 01°31' W 048°45'0 0.0
2017-Oct-04 06:29S 01°31' W 048°45'0 0.0
2017-Oct-04 05:59S 01°31' W 048°45'0 0.0
2017-Oct-04 05:29S 01°31' W 048°45'0 0.2
2017-Oct-04 04:59S 01°31' W 048°46'0 0.3
2017-Oct-04 04:26S 01°31' W 048°46'0 0.1
2017-Oct-04 03:56S 01°31' W 048°46'0 0.0
2017-Oct-04 03:26S 01°31' W 048°46'0 0.0
2017-Oct-04 02:59S 01°31' W 048°46'0 0.0
2017-Oct-04 02:14S 01°31' W 048°46'0 0.1
2017-Oct-04 01:50S 01°31' W 048°46'0 0.1
2017-Oct-04 01:20S 01°31' W 048°46'1 0.6
2017-Oct-04 00:20S 01°31' W 048°45'1 1.5
2017-Oct-03 23:50S 01°31' W 048°46'0 0.4
2017-Oct-03 23:26S 01°31' W 048°46'0 0.2
2017-Oct-03 22:59S 01°31' W 048°46'0 0.2
2017-Oct-03 22:23S 01°31' W 048°45'0 0.2
2017-Oct-03 21:59S 01°31' W 048°46'0 0.0
2017-Oct-03 21:29S 01°31' W 048°46'0 0.1
2017-Oct-03 19:53S 01°31' W 048°45'0 0.1
2017-Oct-03 19:29S 01°31' W 048°45'0 0.0
2017-Oct-03 18:59S 01°31' W 048°45'2 3.3
2017-Oct-03 18:26S 01°29' W 048°46'2 2.9
2017-Oct-03 17:53S 01°31' W 048°45'0 0.4
2017-Oct-03 17:26S 01°31' W 048°45'0 0.3
2017-Oct-03 16:56S 01°31' W 048°46'0 0.1
2017-Oct-03 16:26S 01°31' W 048°45'0 0.2
2017-Oct-03 15:56S 01°31' W 048°45'0 0.1
2017-Oct-03 15:17S 01°31' W 048°46'0 0.2
2017-Oct-03 14:56S 01°31' W 048°46'0 0.0
2017-Oct-03 12:29S 01°31' W 048°46'0 0.0
2017-Oct-03 11:50S 01°31' W 048°46'0 0.0
2017-Oct-03 09:13S 01°31' W 048°46'0 0.8
2017-Oct-03 08:58S 01°31' W 048°46'0 0.1
2017-Oct-03 08:28S 01°31' W 048°45'0 0.1
2017-Oct-03 07:58S 01°31' W 048°45'0 0.1
2017-Oct-03 07:28S 01°31' W 048°45'0 0.0
2017-Oct-03 06:58S 01°31' W 048°45'0 0.0
2017-Oct-03 06:22S 01°31' W 048°45'0 0.0
2017-Oct-03 05:37S 01°31' W 048°45'0 0.0
2017-Oct-03 05:25S 01°31' W 048°45'0 0.1
2017-Oct-03 04:58S 01°31' W 048°45'0 0.2
2017-Oct-03 04:16S 01°31' W 048°45'0 0.2
2017-Oct-03 03:52S 01°31' W 048°46'0 0.0
2017-Oct-03 03:28S 01°31' W 048°46'0 0.0
2017-Oct-03 01:43S 01°31' W 048°46'0 0.1
2017-Oct-03 01:22S 01°31' W 048°46'0 0.0
2017-Oct-03 00:43S 01°31' W 048°46'0 0.0
2017-Oct-03 00:22S 01°31' W 048°46'0 0.1
2017-Oct-02 23:55S 01°31' W 048°46'0 0.0
2017-Oct-02 23:25S 01°31' W 048°46'0 0.0
2017-Oct-02 22:58S 01°31' W 048°46'0 0.0
2017-Oct-02 22:30S 01°31' W 048°46'0 0.0
2017-Oct-02 21:58S 01°31' W 048°46'0 0.0
2017-Oct-02 21:25S 01°31' W 048°46'0 0.0
2017-Oct-02 20:58S 01°31' W 048°46'0 0.0
2017-Oct-02 20:28S 01°31' W 048°46'0 0.1
2017-Oct-02 19:58S 01°31' W 048°46'0 0.1
2017-Oct-02 18:13S 01°31' W 048°45'0 0.4
2017-Oct-02 17:52S 01°31' W 048°46'0 0.3
2017-Oct-02 17:28S 01°31' W 048°46'0 0.8
2017-Oct-02 17:00S 01°31' W 048°45'0 0.6
2017-Oct-02 16:25S 01°31' W 048°46'0 0.0
2017-Oct-02 14:52S 01°31' W 048°45'0 0.3
2017-Oct-02 14:29S 01°31' W 048°46'0 0.0
2017-Oct-02 14:00S 01°31' W 048°46'0 0.0
2017-Oct-02 13:19S 01°31' W 048°46'0 0.0
2017-Oct-02 12:46S 01°31' W 048°46'0 0.0
2017-Oct-02 12:25S 01°31' W 048°46'0 0.0
2017-Oct-02 11:49S 01°31' W 048°46'0 0.0
2017-Oct-02 11:22S 01°31' W 048°46'0 0.1
2017-Oct-02 10:55S 01°31' W 048°46'0 0.0
2017-Oct-02 10:28S 01°31' W 048°46'0 0.0
2017-Oct-02 09:58S 01°31' W 048°46'0 0.0
2017-Oct-02 09:28S 01°31' W 048°46'0 0.3
2017-Oct-02 08:55S 01°31' W 048°46'0 0.4
2017-Oct-02 08:28S 01°32' W 048°46'0 0.7
2017-Oct-02 07:52S 01°31' W 048°46'0 1.1
2017-Oct-02 07:28S 01°31' W 048°45'0 0.5
2017-Oct-02 06:58S 01°31' W 048°45'0 0.1
2017-Oct-02 06:25S 01°31' W 048°45'0 0.1
2017-Oct-02 05:58S 01°31' W 048°45'0 0.2
2017-Oct-02 05:28S 01°31' W 048°45'0 0.1
2017-Oct-02 04:58S 01°31' W 048°45'0 0.0
2017-Oct-02 04:28S 01°31' W 048°45'0 0.2
2017-Oct-02 03:58S 01°31' W 048°46'0 0.2
2017-Oct-02 02:55S 01°31' W 048°46'1 1.5
2017-Oct-02 02:25S 01°30' W 048°46'1 1.2
2017-Oct-02 01:55S 01°31' W 048°46'0 0.1
2017-Oct-02 01:25S 01°31' W 048°45'0 0.3
2017-Oct-02 00:55S 01°31' W 048°46'0 0.1
2017-Oct-02 00:25S 01°31' W 048°46'0 0.1
2017-Oct-01 23:58S 01°31' W 048°46'0 0.1
2017-Oct-01 23:22S 01°31' W 048°46'0 0.0
2017-Oct-01 22:58S 01°31' W 048°46'0 0.0
2017-Oct-01 22:28S 01°31' W 048°46'0 0.0
2017-Oct-01 21:58S 01°31' W 048°46'0 0.0
2017-Oct-01 21:28S 01°31' W 048°46'0 0.0
2017-Oct-01 20:55S 01°31' W 048°46'0 0.0
2017-Oct-01 20:28S 01°31' W 048°46'0 0.0
2017-Oct-01 19:58S 01°31' W 048°46'1 1.1
2017-Oct-01 19:28S 01°32' W 048°46'1 0.6
2017-Oct-01 18:22S 01°31' W 048°45'0 0.4
2017-Oct-01 17:55S 01°31' W 048°45'0 0.5
2017-Oct-01 17:28S 01°31' W 048°45'0 0.5
2017-Oct-01 16:58S 01°31' W 048°46'0 0.1
2017-Oct-01 16:28S 01°31' W 048°46'0 0.6
2017-Oct-01 15:58S 01°31' W 048°45'0 0.2
2017-Oct-01 15:30S 01°31' W 048°45'1 1.7
2017-Oct-01 14:59S 01°32' W 048°45'0 0.0
2017-Oct-01 14:26S 01°32' W 048°45'0 0.0
2017-Oct-01 13:45S 01°32' W 048°45'0 0.1
2017-Oct-01 13:29S 01°32' W 048°45'0 0.0
2017-Oct-01 12:59S 01°32' W 048°45'0 0.5
2017-Oct-01 12:30S 01°32' W 048°45'0 0.4
2017-Oct-01 11:56S 01°32' W 048°45'0 0.0
2017-Oct-01 11:24S 01°32' W 048°45'0 0.0
2017-Oct-01 10:47S 01°32' W 048°45'0 0.0
2017-Oct-01 10:29S 01°32' W 048°45'1 1.3
2017-Oct-01 09:56S 01°31' W 048°44'0 1.0
2017-Oct-01 09:29S 01°32' W 048°45'0 0.5
2017-Oct-01 08:58S 01°32' W 048°44'0 0.2
2017-Oct-01 08:28S 01°32' W 048°44'0 0.3
2017-Oct-01 07:59S 01°32' W 048°45'0 0.1
2017-Oct-01 07:28S 01°32' W 048°45'0 0.4
2017-Oct-01 06:55S 01°32' W 048°45'0 0.0
2017-Oct-01 06:29S 01°32' W 048°45'0 0.0
2017-Oct-01 05:58S 01°32' W 048°45'0 0.0
2017-Oct-01 05:29S 01°32' W 048°45'0 0.0
2017-Oct-01 04:59S 01°32' W 048°45'0 0.2
2017-Oct-01 04:25S 01°32' W 048°45'0 0.2
2017-Oct-01 03:58S 01°32' W 048°45'0 0.0
2017-Oct-01 03:29S 01°32' W 048°45'0 0.5
2017-Oct-01 02:59S 01°32' W 048°45'0 0.0
2017-Sep-30 01:58S 01°32' W 048°45'0 0.0
2017-Sep-30 01:28S 01°32' W 048°45'0 0.0
2017-Sep-30 00:58S 01°32' W 048°45'0 0.1
2017-Sep-30 00:25S 01°32' W 048°45'0 0.0
2017-Sep-29 19:58S 01°32' W 048°45'0 0.0
2017-Sep-29 19:28S 01°32' W 048°45'0 0.0
2017-Sep-29 18:58S 01°32' W 048°45'0 0.1
2017-Sep-29 18:29S 01°32' W 048°45'0 0.7
2017-Sep-29 18:00S 01°31' W 048°45'2 4.5
2017-Sep-29 17:30S 01°29' W 048°45'1 0.8
2017-Sep-29 16:45S 01°30' W 048°44'0 1.9
2017-Sep-29 16:30S 01°29' W 048°44'1 1.3
2017-Sep-29 15:57S 01°30' W 048°44'0 1.0
2017-Sep-29 15:30S 01°29' W 048°44'0 0.5
2017-Sep-29 15:00S 01°29' W 048°44'0 0.0
2017-Sep-29 14:30S 01°29' W 048°44'0 0.0
2017-Sep-29 14:00S 01°29' W 048°44'0 0.0
2017-Sep-29 13:27S 01°29' W 048°44'0 0.3
2017-Sep-29 12:51S 01°29' W 048°45'0 0.2
2017-Sep-29 12:24S 01°29' W 048°45'5 7.6
2017-Sep-29 11:48S 01°33' W 048°42'511.9
2017-Sep-29 11:26S 01°29' W 048°45'0 0.1
2017-Sep-29 10:50S 01°29' W 048°45'0 0.8
2017-Sep-29 10:21S 01°29' W 048°44'3 7.9
2017-Sep-29 10:00S 01°27' W 048°43'714.2
2017-Sep-29 09:30S 01°21' W 048°40'714.7
2017-Sep-29 09:00S 01°15' W 048°36'714.6
2017-Sep-29 08:30S 01°09' W 048°31'4 8.0
2017-Sep-29 08:00S 01°06' W 048°29'713.4
2017-Sep-29 07:30S 00°60' W 048°25'914.7
2017-Sep-29 06:53S 00°52' W 048°20'614.5
2017-Sep-29 06:30S 00°47' W 048°17'714.1
2017-Sep-29 06:00S 00°42' W 048°14'510.9
2017-Sep-29 05:30S 00°37' W 048°10'5 9.6
2017-Sep-29 05:00S 00°35' W 048°06'713.9
2017-Sep-29 04:31S 00°30' W 048°01'714.9
2017-Sep-29 04:00S 00°25' W 047°55'713.9
2017-Sep-29 03:31S 00°23' W 047°49'4 8.9
2017-Sep-29 03:00S 00°24' W 047°44'2 4.3
2017-Sep-29 02:30S 00°23' W 047°42'0 0.1
2017-Sep-29 01:57S 00°23' W 047°42'0 0.0
2017-Sep-29 01:30S 00°23' W 047°42'0 0.5
2017-Sep-29 00:57S 00°23' W 047°42'0 0.4
2017-Sep-29 00:27S 00°23' W 047°42'0 0.1
2017-Sep-29 00:00S 00°23' W 047°42'0 0.0
2017-Sep-28 23:30S 00°23' W 047°42'1 1.4
2017-Sep-28 23:00S 00°23' W 047°42'1 1.2
2017-Sep-28 22:24S 00°23' W 047°42'0 1.2
2017-Sep-28 22:00S 00°23' W 047°42'4 7.9
2017-Sep-28 21:31S 00°21' W 047°38'612.3
2017-Sep-28 21:00S 00°19' W 047°33'  
Track history (hours):
 
Tides and Currents Weather Stations Pressure Air Temp Water Temp Dewpoint Dewpoint Depression Visibility Wind Speed Wind Dir Waves Ship Positions

Emmanuel Tomasos

Last reported at 2017-Oct-07 12:23 UTC. Time now 2017-Nov-17 22:57 UTC.
Position S 00°17' W 047°30'.
Warning: this ship's position is 41 days out of date.

Length 182 m; draft 7.5 m.

Type: Tanker. MMSI: 311459000.

Date/timePositionNaut miles runAvg speedWind from/ knotsBaromVisibWave heightAir tempDewpointWater temp
2017-Oct-07 12:23S 00°17' W 047°30'513.2
2017-Oct-07 12:00S 00°19' W 047°35'612.7
2017-Oct-07 11:30S 00°22' W 047°40'611.9
2017-Oct-07 11:00S 00°23' W 047°46'510.5
2017-Oct-07 10:30S 00°23' W 047°51'4 8.8
2017-Oct-07 10:00S 00°26' W 047°55'611.1
2017-Oct-07 09:30S 00°29' W 047°60'713.5
2017-Oct-07 09:00S 00°34' W 048°05'714.4
2017-Oct-07 08:31S 00°38' W 048°11'1116.3
2017-Oct-07 07:50S 00°46' W 048°17'1318.4
2017-Oct-07 07:08S 00°57' W 048°24'517.6
2017-Oct-07 06:51S 01°02' W 048°26'617.2
2017-Oct-07 06:30S 01°07' W 048°29'4 8.4
2017-Oct-07 06:00S 01°10' W 048°32'815.7
2017-Oct-07 05:30S 01°16' W 048°37'714.7
2017-Oct-07 05:00S 01°22' W 048°41'713.7
2017-Oct-07 04:30S 01°28' W 048°44'4 7.5
2017-Oct-07 04:00S 01°32' W 048°45'0 0.0
2017-Oct-07 03:31S 01°32' W 048°45'0 0.0
2017-Oct-07 03:01S 01°32' W 048°45'0 0.0
2017-Oct-07 02:30S 01°32' W 048°45'0 0.0
2017-Oct-07 02:00S 01°32' W 048°45'0 0.0
2017-Oct-07 01:31S 01°32' W 048°45'0 0.0
2017-Oct-07 01:01S 01°32' W 048°45'0 0.1
2017-Oct-07 00:31S 01°32' W 048°45'0 0.1
2017-Oct-07 00:01S 01°32' W 048°45'0 0.0
2017-Oct-06 23:31S 01°32' W 048°45'0 0.3
2017-Oct-06 23:01S 01°32' W 048°45'0 0.3
2017-Oct-06 22:31S 01°32' W 048°45'0 0.0
2017-Oct-06 22:00S 01°32' W 048°45'0 0.0
2017-Oct-06 21:30S 01°32' W 048°45'0 0.0
2017-Oct-06 21:00S 01°32' W 048°45'0 0.0
2017-Oct-06 20:30S 01°32' W 048°45'0 0.0
2017-Oct-06 20:00S 01°32' W 048°45'0 0.0
2017-Oct-06 19:31S 01°32' W 048°45'0 0.0
2017-Oct-06 19:00S 01°32' W 048°45'0 0.0
2017-Oct-06 18:30S 01°32' W 048°45'0 0.0
2017-Oct-06 18:01S 01°32' W 048°45'1 2.4
2017-Oct-06 17:31S 01°31' W 048°45'1 2.0
2017-Oct-06 17:00S 01°32' W 048°45'0 0.8
2017-Oct-06 16:30S 01°32' W 048°45'0 0.2
2017-Oct-06 16:00S 01°32' W 048°45'0 0.2
2017-Oct-06 15:30S 01°32' W 048°45'0 0.2
2017-Oct-06 14:36S 01°32' W 048°45'0 0.1
2017-Oct-06 14:30S 01°32' W 048°45'0 0.0
2017-Oct-06 14:01S 01°32' W 048°45'0 0.0
2017-Oct-06 13:30S 01°32' W 048°45'0 0.0
2017-Oct-06 13:00S 01°32' W 048°45'0 0.0
2017-Oct-06 12:29S 01°32' W 048°45'0 0.0
2017-Oct-06 12:00S 01°32' W 048°45'0 0.0
2017-Oct-06 11:30S 01°32' W 048°45'0 0.0
2017-Oct-06 11:00S 01°32' W 048°45'0 0.4
2017-Oct-06 10:31S 01°32' W 048°45'0 0.4
2017-Oct-06 10:01S 01°32' W 048°45'0 0.1
2017-Oct-06 09:31S 01°32' W 048°45'0 0.0
2017-Oct-06 09:01S 01°32' W 048°45'0 0.2
2017-Oct-06 08:31S 01°32' W 048°45'0 0.7
2017-Oct-06 08:00S 01°32' W 048°45'0 0.5
2017-Oct-06 07:30S 01°32' W 048°45'0 0.0
2017-Oct-06 07:00S 01°32' W 048°45'0 0.0
2017-Oct-06 06:31S 01°32' W 048°45'0 0.0
2017-Oct-06 06:00S 01°32' W 048°45'0 0.0
2017-Oct-06 05:30S 01°32' W 048°45'0 0.0
2017-Oct-06 05:01S 01°32' W 048°45'0 0.0
2017-Oct-06 04:30S 01°32' W 048°45'0 0.0
2017-Oct-06 04:01S 01°32' W 048°45'0 0.0
2017-Oct-06 03:30S 01°32' W 048°45'0 0.0
2017-Oct-06 03:01S 01°32' W 048°45'0 0.0
2017-Oct-06 02:30S 01°32' W 048°45'0 0.0
2017-Oct-06 02:00S 01°32' W 048°45'0 0.0
2017-Oct-06 01:31S 01°32' W 048°45'0 0.0
2017-Oct-06 01:00S 01°32' W 048°45'1 1.7
2017-Oct-06 00:30S 01°31' W 048°44'1 2.0
2017-Oct-06 00:01S 01°32' W 048°45'0 0.3
2017-Oct-05 23:31S 01°32' W 048°45'0 0.4
2017-Oct-05 23:01S 01°32' W 048°45'0 0.4
2017-Oct-05 22:30S 01°32' W 048°45'0 0.1
2017-Oct-05 22:00S 01°32' W 048°45'0 0.0
2017-Oct-05 21:30S 01°32' W 048°45'0 0.0
2017-Oct-05 21:00S 01°32' W 048°45'0 0.0
2017-Oct-05 20:30S 01°32' W 048°45'0 0.0
2017-Oct-05 20:01S 01°32' W 048°45'0 0.0
2017-Oct-05 19:30S 01°32' W 048°45'0 0.0
2017-Oct-05 19:00S 01°32' W 048°45'0 0.0
2017-Oct-05 18:31S 01°32' W 048°45'0 0.0
2017-Oct-05 18:01S 01°32' W 048°45'0 0.0
2017-Oct-05 17:31S 01°32' W 048°45'0 0.0
2017-Oct-05 17:00S 01°32' W 048°45'0 0.0
2017-Oct-05 15:31S 01°32' W 048°45'0 0.1
2017-Oct-05 14:11S 01°32' W 048°45'0 1.8
2017-Oct-05 14:01S 01°32' W 048°45'1 1.0
2017-Oct-05 13:20S 01°31' W 048°46'0 0.0
2017-Oct-05 12:56S 01°31' W 048°46'0 0.0
2017-Oct-05 12:29S 01°31' W 048°46'0 0.0
2017-Oct-05 11:56S 01°31' W 048°46'0 0.0
2017-Oct-05 11:26S 01°31' W 048°46'0 0.1
2017-Oct-05 10:56S 01°31' W 048°46'0 0.1
2017-Oct-05 10:26S 01°31' W 048°46'0 0.3
2017-Oct-05 09:56S 01°31' W 048°46'0 0.1
2017-Oct-05 09:29S 01°31' W 048°45'0 0.0
2017-Oct-05 08:59S 01°31' W 048°45'0 0.1
2017-Oct-05 08:29S 01°31' W 048°45'0 0.7
2017-Oct-05 07:59S 01°31' W 048°45'0 0.7
2017-Oct-05 07:26S 01°31' W 048°45'0 0.0
2017-Oct-05 06:59S 01°31' W 048°45'0 0.0
2017-Oct-05 06:26S 01°31' W 048°45'0 0.0
2017-Oct-05 05:59S 01°31' W 048°45'0 0.2
2017-Oct-05 05:26S 01°31' W 048°46'0 0.4
2017-Oct-05 04:53S 01°31' W 048°46'0 0.0
2017-Oct-05 04:29S 01°31' W 048°46'0 0.0
2017-Oct-05 03:50S 01°31' W 048°46'0 0.0
2017-Oct-05 03:26S 01°31' W 048°46'0 0.0
2017-Oct-05 02:53S 01°31' W 048°46'0 0.0
2017-Oct-05 02:26S 01°31' W 048°46'0 0.0
2017-Oct-04 21:59S 01°31' W 048°46'0 0.2
2017-Oct-04 21:29S 01°31' W 048°46'0 0.1
2017-Oct-04 20:08S 01°31' W 048°45'0 0.0
2017-Oct-04 19:53S 01°31' W 048°45'0 0.0
2017-Oct-04 19:29S 01°31' W 048°45'0 0.3
2017-Oct-04 18:59S 01°31' W 048°46'0 0.4
2017-Oct-04 18:23S 01°31' W 048°45'0 0.2
2017-Oct-04 17:59S 01°31' W 048°45'0 0.3
2017-Oct-04 17:29S 01°31' W 048°46'0 0.4
2017-Oct-04 16:59S 01°31' W 048°45'0 0.2
2017-Oct-04 16:08S 01°31' W 048°46'0 0.3
2017-Oct-04 15:59S 01°31' W 048°46'0 0.1
2017-Oct-04 15:29S 01°31' W 048°46'0 0.8
2017-Oct-04 14:59S 01°32' W 048°45'0 0.3
2017-Oct-04 13:29S 01°31' W 048°46'0 0.0
2017-Oct-04 12:50S 01°31' W 048°46'0 0.0
2017-Oct-04 12:26S 01°31' W 048°46'0 0.0
2017-Oct-04 11:59S 01°31' W 048°46'0 0.0
2017-Oct-04 11:26S 01°31' W 048°46'0 0.0
2017-Oct-04 10:59S 01°31' W 048°46'0 0.0
2017-Oct-04 10:26S 01°31' W 048°46'0 0.1
2017-Oct-04 09:56S 01°31' W 048°46'0 0.5
2017-Oct-04 09:26S 01°31' W 048°45'0 0.2
2017-Oct-04 08:56S 01°31' W 048°45'0 0.1
2017-Oct-04 08:29S 01°31' W 048°45'0 0.7
2017-Oct-04 07:59S 01°31' W 048°45'0 0.8
2017-Oct-04 07:29S 01°31' W 048°45'0 0.0
2017-Oct-04 06:59S 01°31' W 048°45'0 0.0
2017-Oct-04 06:29S 01°31' W 048°45'0 0.0
2017-Oct-04 05:59S 01°31' W 048°45'0 0.0
2017-Oct-04 05:29S 01°31' W 048°45'0 0.2
2017-Oct-04 04:59S 01°31' W 048°46'0 0.3
2017-Oct-04 04:26S 01°31' W 048°46'0 0.1
2017-Oct-04 03:56S 01°31' W 048°46'0 0.0
2017-Oct-04 03:26S 01°31' W 048°46'0 0.0
2017-Oct-04 02:59S 01°31' W 048°46'0 0.0
2017-Oct-04 02:14S 01°31' W 048°46'0 0.1
2017-Oct-04 01:50S 01°31' W 048°46'0 0.1
2017-Oct-04 01:20S 01°31' W 048°46'1 0.6
2017-Oct-04 00:20S 01°31' W 048°45'1 1.5
2017-Oct-03 23:50S 01°31' W 048°46'0 0.4
2017-Oct-03 23:26S 01°31' W 048°46'0 0.2
2017-Oct-03 22:59S 01°31' W 048°46'0 0.2
2017-Oct-03 22:23S 01°31' W 048°45'0 0.2
2017-Oct-03 21:59S 01°31' W 048°46'0 0.0
2017-Oct-03 21:29S 01°31' W 048°46'0 0.1
2017-Oct-03 19:53S 01°31' W 048°45'0 0.1
2017-Oct-03 19:29S 01°31' W 048°45'0 0.0
2017-Oct-03 18:59S 01°31' W 048°45'2 3.3
2017-Oct-03 18:26S 01°29' W 048°46'2 2.9
2017-Oct-03 17:53S 01°31' W 048°45'0 0.4
2017-Oct-03 17:26S 01°31' W 048°45'0 0.3
2017-Oct-03 16:56S 01°31' W 048°46'0 0.1
2017-Oct-03 16:26S 01°31' W 048°45'0 0.2
2017-Oct-03 15:56S 01°31' W 048°45'0 0.1
2017-Oct-03 15:17S 01°31' W 048°46'0 0.2
2017-Oct-03 14:56S 01°31' W 048°46'0 0.0
2017-Oct-03 12:29S 01°31' W 048°46'0 0.0
2017-Oct-03 11:50S 01°31' W 048°46'0 0.0
2017-Oct-03 09:13S 01°31' W 048°46'0 0.8
2017-Oct-03 08:58S 01°31' W 048°46'0 0.1
2017-Oct-03 08:28S 01°31' W 048°45'0 0.1
2017-Oct-03 07:58S 01°31' W 048°45'0 0.1
2017-Oct-03 07:28S 01°31' W 048°45'0 0.0
2017-Oct-03 06:58S 01°31' W 048°45'0 0.0
2017-Oct-03 06:22S 01°31' W 048°45'0 0.0
2017-Oct-03 05:37S 01°31' W 048°45'0 0.0
2017-Oct-03 05:25S 01°31' W 048°45'0 0.1
2017-Oct-03 04:58S 01°31' W 048°45'0 0.2
2017-Oct-03 04:16S 01°31' W 048°45'0 0.2
2017-Oct-03 03:52S 01°31' W 048°46'0 0.0
2017-Oct-03 03:28S 01°31' W 048°46'0 0.0
2017-Oct-03 01:43S 01°31' W 048°46'0 0.1
2017-Oct-03 01:22S 01°31' W 048°46'0 0.0
2017-Oct-03 00:43S 01°31' W 048°46'0 0.0
2017-Oct-03 00:22S 01°31' W 048°46'0 0.1
2017-Oct-02 23:55S 01°31' W 048°46'0 0.0
2017-Oct-02 23:25S 01°31' W 048°46'0 0.0
2017-Oct-02 22:58S 01°31' W 048°46'0 0.0
2017-Oct-02 22:30S 01°31' W 048°46'0 0.0
2017-Oct-02 21:58S 01°31' W 048°46'0 0.0
2017-Oct-02 21:25S 01°31' W 048°46'0 0.0
2017-Oct-02 20:58S 01°31' W 048°46'0 0.0
2017-Oct-02 20:28S 01°31' W 048°46'0 0.1
2017-Oct-02 19:58S 01°31' W 048°46'0 0.1
2017-Oct-02 18:13S 01°31' W 048°45'0 0.4
2017-Oct-02 17:52S 01°31' W 048°46'0 0.3
2017-Oct-02 17:28S 01°31' W 048°46'0 0.8
2017-Oct-02 17:00S 01°31' W 048°45'0 0.6
2017-Oct-02 16:25S 01°31' W 048°46'0 0.0
2017-Oct-02 14:52S 01°31' W 048°45'0 0.3
2017-Oct-02 14:29S 01°31' W 048°46'0 0.0
2017-Oct-02 14:00S 01°31' W 048°46'0 0.0
2017-Oct-02 13:19S 01°31' W 048°46'0 0.0
2017-Oct-02 12:46S 01°31' W 048°46'0 0.0
2017-Oct-02 12:25S 01°31' W 048°46'0 0.0
2017-Oct-02 11:49S 01°31' W 048°46'0 0.0
2017-Oct-02 11:22S 01°31' W 048°46'0 0.1
2017-Oct-02 10:55S 01°31' W 048°46'0 0.0
2017-Oct-02 10:28S 01°31' W 048°46'0 0.0
2017-Oct-02 09:58S 01°31' W 048°46'0 0.0
2017-Oct-02 09:28S 01°31' W 048°46'0 0.3
2017-Oct-02 08:55S 01°31' W 048°46'0 0.4
2017-Oct-02 08:28S 01°32' W 048°46'0 0.7
2017-Oct-02 07:52S 01°31' W 048°46'0 1.1
2017-Oct-02 07:28S 01°31' W 048°45'0 0.5
2017-Oct-02 06:58S 01°31' W 048°45'0 0.1
2017-Oct-02 06:25S 01°31' W 048°45'0 0.1
2017-Oct-02 05:58S 01°31' W 048°45'0 0.2
2017-Oct-02 05:28S 01°31' W 048°45'0 0.1
2017-Oct-02 04:58S 01°31' W 048°45'0 0.0
2017-Oct-02 04:28S 01°31' W 048°45'0 0.2
2017-Oct-02 03:58S 01°31' W 048°46'0 0.2
2017-Oct-02 02:55S 01°31' W 048°46'1 1.5
2017-Oct-02 02:25S 01°30' W 048°46'1 1.2
2017-Oct-02 01:55S 01°31' W 048°46'0 0.1
2017-Oct-02 01:25S 01°31' W 048°45'0 0.3
2017-Oct-02 00:55S 01°31' W 048°46'0 0.1
2017-Oct-02 00:25S 01°31' W 048°46'0 0.1
2017-Oct-01 23:58S 01°31' W 048°46'0 0.1
2017-Oct-01 23:22S 01°31' W 048°46'0 0.0
2017-Oct-01 22:58S 01°31' W 048°46'0 0.0
2017-Oct-01 22:28S 01°31' W 048°46'0 0.0
2017-Oct-01 21:58S 01°31' W 048°46'0 0.0
2017-Oct-01 21:28S 01°31' W 048°46'0 0.0
2017-Oct-01 20:55S 01°31' W 048°46'0 0.0
2017-Oct-01 20:28S 01°31' W 048°46'0 0.0
2017-Oct-01 19:58S 01°31' W 048°46'1 1.1
2017-Oct-01 19:28S 01°32' W 048°46'1 0.6
2017-Oct-01 18:22S 01°31' W 048°45'0 0.4
2017-Oct-01 17:55S 01°31' W 048°45'0 0.5
2017-Oct-01 17:28S 01°31' W 048°45'0 0.5
2017-Oct-01 16:58S 01°31' W 048°46'0 0.1
2017-Oct-01 16:28S 01°31' W 048°46'0 0.6
2017-Oct-01 15:58S 01°31' W 048°45'0 0.2
2017-Oct-01 15:30S 01°31' W 048°45'1 1.7
2017-Oct-01 14:59S 01°32' W 048°45'0 0.0
2017-Oct-01 14:26S 01°32' W 048°45'0 0.0
2017-Oct-01 13:45S 01°32' W 048°45'0 0.1
2017-Oct-01 13:29S 01°32' W 048°45'0 0.0
2017-Oct-01 12:59S 01°32' W 048°45'0 0.5
2017-Oct-01 12:30S 01°32' W 048°45'0 0.4
2017-Oct-01 11:56S 01°32' W 048°45'0 0.0
2017-Oct-01 11:24S 01°32' W 048°45'0 0.0
2017-Oct-01 10:47S 01°32' W 048°45'0 0.0
2017-Oct-01 10:29S 01°32' W 048°45'1 1.3
2017-Oct-01 09:56S 01°31' W 048°44'0 1.0
2017-Oct-01 09:29S 01°32' W 048°45'0 0.5
2017-Oct-01 08:58S 01°32' W 048°44'0 0.2
2017-Oct-01 08:28S 01°32' W 048°44'0 0.3
2017-Oct-01 07:59S 01°32' W 048°45'0 0.1
2017-Oct-01 07:28S 01°32' W 048°45'0 0.4
2017-Oct-01 06:55S 01°32' W 048°45'0 0.0
2017-Oct-01 06:29S 01°32' W 048°45'0 0.0
2017-Oct-01 05:58S 01°32' W 048°45'0 0.0
2017-Oct-01 05:29S 01°32' W 048°45'0 0.0
2017-Oct-01 04:59S 01°32' W 048°45'0 0.2
2017-Oct-01 04:25S 01°32' W 048°45'0 0.2
2017-Oct-01 03:58S 01°32' W 048°45'0 0.0
2017-Oct-01 03:29S 01°32' W 048°45'0 0.5
2017-Oct-01 02:59S 01°32' W 048°45'0 0.0
2017-Sep-30 01:58S 01°32' W 048°45'0 0.0
2017-Sep-30 01:28S 01°32' W 048°45'0 0.0
2017-Sep-30 00:58S 01°32' W 048°45'0 0.1
2017-Sep-30 00:25S 01°32' W 048°45'0 0.0
2017-Sep-29 19:58S 01°32' W 048°45'0 0.0
2017-Sep-29 19:28S 01°32' W 048°45'0 0.0
2017-Sep-29 18:58S 01°32' W 048°45'0 0.1
2017-Sep-29 18:29S 01°32' W 048°45'0 0.7
2017-Sep-29 18:00S 01°31' W 048°45'2 4.5
2017-Sep-29 17:30S 01°29' W 048°45'1 0.8
2017-Sep-29 16:45S 01°30' W 048°44'0 1.9
2017-Sep-29 16:30S 01°29' W 048°44'1 1.3
2017-Sep-29 15:57S 01°30' W 048°44'0 1.0
2017-Sep-29 15:30S 01°29' W 048°44'0 0.5
2017-Sep-29 15:00S 01°29' W 048°44'0 0.0
2017-Sep-29 14:30S 01°29' W 048°44'0 0.0
2017-Sep-29 14:00S 01°29' W 048°44'0 0.0
2017-Sep-29 13:27S 01°29' W 048°44'0 0.3
2017-Sep-29 12:51S 01°29' W 048°45'0 0.2
2017-Sep-29 12:24S 01°29' W 048°45'5 7.6
2017-Sep-29 11:48S 01°33' W 048°42'511.9
2017-Sep-29 11:26S 01°29' W 048°45'0 0.1
2017-Sep-29 10:50S 01°29' W 048°45'0 0.8
2017-Sep-29 10:21S 01°29' W 048°44'3 7.9
2017-Sep-29 10:00S 01°27' W 048°43'714.2
2017-Sep-29 09:30S 01°21' W 048°40'714.7
2017-Sep-29 09:00S 01°15' W 048°36'714.6
2017-Sep-29 08:30S 01°09' W 048°31'4 8.0
2017-Sep-29 08:00S 01°06' W 048°29'713.4
2017-Sep-29 07:30S 00°60' W 048°25'914.7
2017-Sep-29 06:53S 00°52' W 048°20'614.5
2017-Sep-29 06:30S 00°47' W 048°17'714.1
2017-Sep-29 06:00S 00°42' W 048°14'510.9
2017-Sep-29 05:30S 00°37' W 048°10'5 9.6
2017-Sep-29 05:00S 00°35' W 048°06'713.9
2017-Sep-29 04:31S 00°30' W 048°01'714.9
2017-Sep-29 04:00S 00°25' W 047°55'713.9
2017-Sep-29 03:31S 00°23' W 047°49'4 8.9
2017-Sep-29 03:00S 00°24' W 047°44'2 4.3
2017-Sep-29 02:30S 00°23' W 047°42'0 0.1
2017-Sep-29 01:57S 00°23' W 047°42'0 0.0
2017-Sep-29 01:30S 00°23' W 047°42'0 0.5
2017-Sep-29 00:57S 00°23' W 047°42'0 0.4
2017-Sep-29 00:27S 00°23' W 047°42'0 0.1
2017-Sep-29 00:00S 00°23' W 047°42'0 0.0
2017-Sep-28 23:30S 00°23' W 047°42'1 1.4
2017-Sep-28 23:00S 00°23' W 047°42'1 1.2
2017-Sep-28 22:24S 00°23' W 047°42'0 1.2
2017-Sep-28 22:00S 00°23' W 047°42'4 7.9
2017-Sep-28 21:31S 00°21' W 047°38'612.3
2017-Sep-28 21:00S 00°19' W 047°33'  

Dump ship's entire track history